createdAt,value
2019-05-28T00:00:39.869Z,4.60
2019-05-28T00:01:39.886Z,6.60
2019-05-28T00:02:39.906Z,7.30
2019-05-28T00:03:39.921Z,6.60
2019-05-28T00:04:39.944Z,5.50
2019-05-28T00:05:39.960Z,5.80
2019-05-28T00:06:39.984Z,6.00
2019-05-28T00:07:40.001Z,7.90
2019-05-28T00:08:40.026Z,6.40
2019-05-28T00:09:40.040Z,8.00
2019-05-28T00:10:40.062Z,4.60
2019-05-28T00:11:40.078Z,7.50
2019-05-28T00:12:40.100Z,5.50
2019-05-28T00:13:40.119Z,8.00
2019-05-28T00:14:40.137Z,6.90
2019-05-28T00:15:40.154Z,6.60
2019-05-28T00:16:40.176Z,7.90
2019-05-28T00:17:40.195Z,9.80
2019-05-28T00:18:40.216Z,7.20
2019-05-28T00:19:40.233Z,8.10
2019-05-28T00:20:40.252Z,4.80
2019-05-28T00:21:40.272Z,6.40
2019-05-28T00:22:40.290Z,5.40
2019-05-28T00:23:40.310Z,8.00
2019-05-28T00:24:40.330Z,5.80
2019-05-28T00:25:40.364Z,4.20
2019-05-28T00:26:40.373Z,6.40
2019-05-28T00:27:40.390Z,5.10
2019-05-28T00:28:40.404Z,9.00
2019-05-28T00:29:40.436Z,6.50
2019-05-28T00:30:40.447Z,8.20
2019-05-28T00:31:40.464Z,7.30
2019-05-28T00:32:40.484Z,5.80
2019-05-28T00:33:40.545Z,7.40
2019-05-28T00:34:40.525Z,7.50
2019-05-28T00:35:40.541Z,6.30
2019-05-28T00:36:40.563Z,8.60
2019-05-28T00:37:40.580Z,10.00
2019-05-28T00:38:40.600Z,6.70
2019-05-28T00:39:40.625Z,5.80
2019-05-28T00:40:40.635Z,8.10
2019-05-28T00:41:40.658Z,8.10
2019-05-28T00:42:40.676Z,7.40
2019-05-28T00:43:40.694Z,5.70
2019-05-28T00:44:40.721Z,7.10
2019-05-28T00:45:40.732Z,10.00
2019-05-28T00:46:40.753Z,8.90
2019-05-28T00:47:40.770Z,6.10
2019-05-28T00:48:40.795Z,9.50
2019-05-28T00:49:40.810Z,5.60
2019-05-28T00:50:40.830Z,6.60
2019-05-28T00:51:40.850Z,7.00
2019-05-28T00:52:40.867Z,6.70
2019-05-28T00:53:41.037Z,4.40
2019-05-28T00:54:40.907Z,9.00
2019-05-28T00:55:40.928Z,5.90
2019-05-28T00:56:41.006Z,8.70
2019-05-28T00:57:40.970Z,7.60
2019-05-28T00:58:40.982Z,9.20
2019-05-28T00:59:41.006Z,7.10
2019-05-28T01:00:41.022Z,6.20
2019-05-28T01:01:41.046Z,6.00
2019-05-28T01:02:41.060Z,11.70
2019-05-28T01:03:41.083Z,6.60
2019-05-28T01:04:41.111Z,6.60
2019-05-28T01:05:41.119Z,7.50
2019-05-28T01:06:41.204Z,8.10
2019-05-28T01:07:41.153Z,6.50
2019-05-28T01:08:41.174Z,5.40
2019-05-28T01:09:41.193Z,7.30
2019-05-28T01:10:41.212Z,5.50
2019-05-28T01:11:41.238Z,6.20
2019-05-28T01:12:41.251Z,6.70
2019-05-28T01:13:41.269Z,5.80
2019-05-28T01:14:41.294Z,6.60
2019-05-28T01:15:41.328Z,7.50
2019-05-28T01:16:41.327Z,6.70
2019-05-28T01:17:41.346Z,7.50
2019-05-28T01:18:41.389Z,7.40
2019-05-28T01:19:41.387Z,7.80
2019-05-28T01:20:41.403Z,4.90
2019-05-28T01:21:42.650Z,8.00
2019-05-28T01:22:41.446Z,10.70
2019-05-28T01:23:41.463Z,7.90
2019-05-28T01:24:41.484Z,5.70
2019-05-28T01:25:41.501Z,6.70
2019-05-28T01:26:41.520Z,8.10
2019-05-28T01:27:41.540Z,5.80
2019-05-28T01:28:41.560Z,6.40
2019-05-28T01:29:41.582Z,7.50
2019-05-28T01:30:54.836Z,6.70
2019-05-28T01:31:41.615Z,6.90
2019-05-28T01:32:41.637Z,7.40
2019-05-28T01:33:41.686Z,7.80
2019-05-28T01:34:41.674Z,8.50
2019-05-28T01:35:41.694Z,7.50
2019-05-28T01:36:41.712Z,7.90
2019-05-28T01:37:41.739Z,10.50
2019-05-28T01:38:41.754Z,7.50
2019-05-28T01:39:41.771Z,8.20
2019-05-28T01:40:41.789Z,7.80
2019-05-28T01:41:41.810Z,7.70
2019-05-28T01:42:41.827Z,6.20
2019-05-28T01:43:41.847Z,7.40
2019-05-28T01:44:41.867Z,10.40
2019-05-28T01:45:41.886Z,10.80
2019-05-28T01:46:41.908Z,7.70
2019-05-28T01:47:41.925Z,7.70
2019-05-28T01:48:41.944Z,6.50
2019-05-28T01:49:41.965Z,7.80
2019-05-28T01:50:41.990Z,6.60
2019-05-28T01:51:42.004Z,6.80
2019-05-28T01:52:42.022Z,6.30
2019-05-28T01:53:42.042Z,8.70
2019-05-28T01:54:42.066Z,11.70
2019-05-28T01:55:42.081Z,7.80
2019-05-28T01:56:42.098Z,5.00
2019-05-28T01:57:42.120Z,7.70
2019-05-28T01:58:42.142Z,5.40
2019-05-28T01:59:42.160Z,7.50
2019-05-28T02:00:42.179Z,7.60
2019-05-28T02:01:42.200Z,6.10
2019-05-28T02:02:42.253Z,8.50
2019-05-28T02:03:42.234Z,5.60
2019-05-28T02:04:42.267Z,6.20
2019-05-28T02:05:42.271Z,6.10
2019-05-28T02:06:42.294Z,8.50
2019-05-28T02:07:42.309Z,8.10
2019-05-28T02:08:42.328Z,7.50
2019-05-28T02:09:42.358Z,7.40
2019-05-28T02:10:42.377Z,7.10
2019-05-28T02:11:42.390Z,6.30
2019-05-28T02:12:42.408Z,6.30
2019-05-28T02:13:42.430Z,8.20
2019-05-28T02:14:42.451Z,5.80
2019-05-28T02:15:42.467Z,9.80
2019-05-28T02:16:42.487Z,7.80
2019-05-28T02:17:42.508Z,5.30
2019-05-28T02:18:42.553Z,7.50
2019-05-28T02:19:42.623Z,7.50
2019-05-28T02:20:42.564Z,9.70
2019-05-28T02:21:42.582Z,10.80
2019-05-28T02:22:42.602Z,5.30
2019-05-28T02:23:42.624Z,7.00
2019-05-28T02:24:42.646Z,6.60
2019-05-28T02:25:42.657Z,6.20
2019-05-28T02:26:42.676Z,7.00
2019-05-28T02:27:42.697Z,4.70
2019-05-28T02:28:42.714Z,11.50
2019-05-28T02:29:42.735Z,6.40
2019-05-28T02:30:42.754Z,7.30
2019-05-28T02:31:42.775Z,11.20
2019-05-28T02:32:42.793Z,5.90
2019-05-28T02:33:42.813Z,8.50
2019-05-28T02:34:42.832Z,5.00
2019-05-28T02:35:42.849Z,8.90
2019-05-28T02:36:42.868Z,4.40
2019-05-28T02:37:42.895Z,6.80
2019-05-28T02:38:42.918Z,7.70
2019-05-28T02:39:42.930Z,7.30
2019-05-28T02:40:42.954Z,5.60
2019-05-28T02:41:42.969Z,4.50
2019-05-28T02:42:42.987Z,6.10
2019-05-28T02:43:43.011Z,9.60
2019-05-28T02:44:43.031Z,12.00
2019-05-28T02:45:43.050Z,6.70
2019-05-28T02:46:43.072Z,6.50
2019-05-28T02:47:43.105Z,8.50
2019-05-28T02:48:43.110Z,4.20
2019-05-28T02:49:43.123Z,8.40
2019-05-28T02:50:43.144Z,7.40
2019-05-28T02:51:43.159Z,7.70
2019-05-28T02:52:43.182Z,7.50
2019-05-28T02:53:43.199Z,4.90
2019-05-28T02:54:43.221Z,8.90
2019-05-28T02:55:43.237Z,12.50
2019-05-28T02:56:43.264Z,8.90
2019-05-28T02:57:43.278Z,7.90
2019-05-28T02:58:43.303Z,8.20
2019-05-28T02:59:43.569Z,7.80
2019-05-28T03:00:43.336Z,9.20
2019-05-28T03:01:44.783Z,7.20
2019-05-28T03:02:43.377Z,12.90
2019-05-28T03:03:43.394Z,8.30
2019-05-28T03:04:43.564Z,6.50
2019-05-28T03:05:43.435Z,6.30
2019-05-28T03:06:43.452Z,6.80
2019-05-28T03:07:43.472Z,6.80
2019-05-28T03:08:43.490Z,5.00
2019-05-28T03:09:43.510Z,9.50
2019-05-28T03:11:03.049Z,6.80
2019-05-28T03:11:43.549Z,6.10
2019-05-28T03:12:43.579Z,6.00
2019-05-28T03:13:44.040Z,7.60
2019-05-28T03:14:43.608Z,9.20
2019-05-28T03:15:43.633Z,8.90
2019-05-28T03:16:43.645Z,7.70
2019-05-28T03:17:43.665Z,8.50
2019-05-28T03:18:43.691Z,7.50
2019-05-28T03:19:43.703Z,8.60
2019-05-28T03:20:43.737Z,5.70
2019-05-28T03:21:43.743Z,5.60
2019-05-28T03:22:43.762Z,5.10
2019-05-28T03:23:43.783Z,8.80
2019-05-28T03:24:43.801Z,5.40
2019-05-28T03:25:43.823Z,7.10
2019-05-28T03:26:43.845Z,9.20
2019-05-28T03:27:43.860Z,6.30
2019-05-28T03:28:43.883Z,5.30
2019-05-28T03:29:43.898Z,8.90
2019-05-28T03:30:43.922Z,8.20
2019-05-28T03:32:02.920Z,6.50
2019-05-28T03:32:43.963Z,6.00
2019-05-28T03:33:43.977Z,8.60
2019-05-28T03:34:43.999Z,7.70
2019-05-28T03:35:44.023Z,11.60
2019-05-28T03:36:44.060Z,17.60
2019-05-28T03:37:44.054Z,34.90
2019-05-28T03:38:44.078Z,10.40
2019-05-28T03:39:44.099Z,10.50
2019-05-28T03:40:44.113Z,6.40
2019-05-28T03:41:44.132Z,9.50
2019-05-28T03:42:44.151Z,9.30
2019-05-28T03:43:44.174Z,7.00
2019-05-28T03:44:44.192Z,6.30
2019-05-28T03:45:44.211Z,6.40
2019-05-28T03:46:44.232Z,7.20
2019-05-28T03:47:44.251Z,10.00
2019-05-28T03:48:44.272Z,5.90
2019-05-28T03:49:44.291Z,9.20
2019-05-28T03:50:44.308Z,9.80
2019-05-28T03:51:44.333Z,6.60
2019-05-28T03:52:44.346Z,9.90
2019-05-28T03:53:44.370Z,9.10
2019-05-28T03:54:44.387Z,8.20
2019-05-28T03:55:44.407Z,8.30
2019-05-28T03:56:44.426Z,10.40
2019-05-28T03:57:44.445Z,7.80
2019-05-28T03:58:44.477Z,5.80
2019-05-28T03:59:44.483Z,8.20
2019-05-28T04:00:44.506Z,6.80
2019-05-28T04:01:44.527Z,5.60
2019-05-28T04:02:44.552Z,5.50
2019-05-28T04:03:44.572Z,9.70
2019-05-28T04:04:44.591Z,7.10
2019-05-28T04:05:44.603Z,7.70
2019-05-28T04:06:44.629Z,8.70
2019-05-28T04:07:44.640Z,9.20
2019-05-28T04:08:44.659Z,8.90
2019-05-28T04:09:44.688Z,6.40
2019-05-28T04:10:44.699Z,6.80
2019-05-28T04:11:45.423Z,6.30
2019-05-28T04:12:44.737Z,11.60
2019-05-28T04:13:44.819Z,7.70
2019-05-28T04:14:44.778Z,5.50
2019-05-28T04:15:44.795Z,6.20
2019-05-28T04:16:44.817Z,8.20
2019-05-28T04:17:44.836Z,10.00
2019-05-28T04:18:44.854Z,9.20
2019-05-28T04:19:44.876Z,7.20
2019-05-28T04:20:44.897Z,8.20
2019-05-28T04:21:44.914Z,8.10
2019-05-28T04:22:44.936Z,8.40
2019-05-28T04:23:44.954Z,6.40
2019-05-28T04:24:45.027Z,7.50
2019-05-28T04:25:44.999Z,10.20
2019-05-28T04:26:45.010Z,9.90
2019-05-28T04:27:45.034Z,6.70
2019-05-28T04:28:45.049Z,8.30
2019-05-28T04:29:45.107Z,6.20
2019-05-28T04:30:45.126Z,10.60
2019-05-28T04:31:45.112Z,11.40
2019-05-28T04:32:45.130Z,8.30
2019-05-28T04:33:45.155Z,8.10
2019-05-28T04:34:45.168Z,5.20
2019-05-28T04:35:45.187Z,10.50
2019-05-28T04:36:45.211Z,5.00
2019-05-28T04:37:45.229Z,6.40
2019-05-28T04:38:45.260Z,7.30
2019-05-28T04:39:45.262Z,10.70
2019-05-28T04:40:45.283Z,8.20
2019-05-28T04:41:45.312Z,11.60
2019-05-28T04:42:45.322Z,7.80
2019-05-28T04:43:45.347Z,9.90
2019-05-28T04:44:45.367Z,9.50
2019-05-28T04:45:45.390Z,11.00
2019-05-28T04:46:45.398Z,10.00
2019-05-28T04:47:45.419Z,8.50
2019-05-28T04:48:45.436Z,8.70
2019-05-28T04:49:45.464Z,10.00
2019-05-28T04:50:45.481Z,8.80
2019-05-28T04:51:45.494Z,8.20
2019-05-28T04:52:45.512Z,7.90
2019-05-28T04:53:45.541Z,9.40
2019-05-28T04:54:45.552Z,10.10
2019-05-28T04:55:45.570Z,9.10
2019-05-28T04:56:45.602Z,8.30
2019-05-28T04:57:45.609Z,6.30
2019-05-28T04:58:45.632Z,8.60
2019-05-28T04:59:45.650Z,9.90
2019-05-28T05:00:45.668Z,9.30
2019-05-28T05:01:45.686Z,8.50
2019-05-28T05:02:58.967Z,12.50
2019-05-28T05:03:45.725Z,8.00
2019-05-28T05:04:45.742Z,11.00
2019-05-28T05:05:45.766Z,12.30
2019-05-28T05:06:45.785Z,13.50
2019-05-28T05:07:45.811Z,13.10
2019-05-28T05:08:45.829Z,10.00
2019-05-28T05:09:45.844Z,13.00
2019-05-28T05:10:45.860Z,9.80
2019-05-28T05:11:45.880Z,10.00
2019-05-28T05:12:45.898Z,9.30
2019-05-28T05:13:45.914Z,9.80
2019-05-28T05:14:45.934Z,9.10
2019-05-28T05:15:47.293Z,17.40
2019-05-28T05:16:45.972Z,14.80
2019-05-28T05:17:45.993Z,11.00
2019-05-28T05:18:46.009Z,13.30
2019-05-28T05:19:46.033Z,13.80
2019-05-28T05:20:46.050Z,10.50
2019-05-28T05:21:46.068Z,10.30
2019-05-28T05:22:46.088Z,9.00
2019-05-28T05:23:46.107Z,14.50
2019-05-28T05:24:46.133Z,10.30
2019-05-28T05:25:46.152Z,8.40
2019-05-28T05:26:46.176Z,11.80
2019-05-28T05:27:46.185Z,11.80
2019-05-28T05:28:46.203Z,8.70
2019-05-28T05:29:46.229Z,13.50
2019-05-28T05:30:46.238Z,14.20
2019-05-28T05:31:46.263Z,11.40
2019-05-28T05:32:46.276Z,10.00
2019-05-28T05:33:46.295Z,10.80
2019-05-28T05:34:46.321Z,10.70
2019-05-28T05:35:46.331Z,11.90
2019-05-28T05:36:46.352Z,10.40
2019-05-28T05:37:46.371Z,10.20
2019-05-28T05:38:46.389Z,11.00
2019-05-28T05:39:48.945Z,11.30
2019-05-28T05:40:46.425Z,10.80
2019-05-28T05:41:46.449Z,9.60
2019-05-28T05:42:46.472Z,8.20
2019-05-28T05:43:46.484Z,10.70
2019-05-28T05:44:46.501Z,10.50
2019-05-28T05:45:46.529Z,12.30
2019-05-28T05:46:46.538Z,10.30
2019-05-28T05:47:46.562Z,10.80
2019-05-28T05:48:46.577Z,13.10
2019-05-28T05:49:46.597Z,13.30
2019-05-28T05:50:46.616Z,10.10
2019-05-28T05:51:46.631Z,12.50
2019-05-28T05:52:46.650Z,12.10
2019-05-28T05:53:46.670Z,10.90
2019-05-28T05:54:46.695Z,12.80
2019-05-28T05:55:46.705Z,12.10
2019-05-28T05:56:46.724Z,11.10
2019-05-28T05:57:46.745Z,11.10
2019-05-28T05:58:46.772Z,10.70
2019-05-28T05:59:46.780Z,9.50
2019-05-28T06:00:46.799Z,13.90
2019-05-28T06:01:46.823Z,14.20
2019-05-28T06:02:46.842Z,11.80
2019-05-28T06:03:46.865Z,9.50
2019-05-28T06:04:46.877Z,13.50
2019-05-28T06:05:46.896Z,11.70
2019-05-28T06:06:46.914Z,11.30
2019-05-28T06:07:46.985Z,8.60
2019-05-28T06:08:46.956Z,9.80
2019-05-28T06:09:46.971Z,11.70
2019-05-28T06:10:46.997Z,10.80
2019-05-28T06:11:47.009Z,12.60
2019-05-28T06:12:47.033Z,12.10
2019-05-28T06:13:47.050Z,10.20
2019-05-28T06:14:47.089Z,10.70
2019-05-28T06:15:47.081Z,10.70
2019-05-28T06:16:47.106Z,14.10
2019-05-28T06:17:47.119Z,13.40
2019-05-28T06:18:47.146Z,14.80
2019-05-28T06:19:47.169Z,14.20
2019-05-28T06:20:47.195Z,17.80
2019-05-28T06:21:47.194Z,12.90
2019-05-28T06:22:47.217Z,20.00
2019-05-28T06:23:47.258Z,21.80
2019-05-28T06:24:47.266Z,36.70
2019-05-28T06:25:47.274Z,31.60
2019-05-28T06:26:47.293Z,17.20
2019-05-28T06:27:47.309Z,13.80
2019-05-28T06:28:47.332Z,20.60
2019-05-28T06:29:47.352Z,13.40
2019-05-28T06:30:47.375Z,12.80
2019-05-28T06:31:47.397Z,11.00
2019-05-28T06:32:47.406Z,8.00
2019-05-28T06:33:56.742Z,9.80
2019-05-28T06:34:47.445Z,10.20
2019-05-28T06:35:47.472Z,10.00
2019-05-28T06:36:47.483Z,9.90
2019-05-28T06:37:47.510Z,11.10
2019-05-28T06:38:47.523Z,14.30
2019-05-28T06:39:47.546Z,13.30
2019-05-28T06:40:47.559Z,11.30
2019-05-28T06:41:47.581Z,13.30
2019-05-28T06:42:47.601Z,12.90
2019-05-28T06:43:47.620Z,14.70
2019-05-28T06:44:47.643Z,14.70
2019-05-28T06:45:47.656Z,13.60
2019-05-28T06:46:47.676Z,17.00
2019-05-28T06:47:47.696Z,14.80
2019-05-28T06:48:47.713Z,11.20
2019-05-28T06:49:47.737Z,13.70
2019-05-28T06:50:47.760Z,10.60
2019-05-28T06:51:47.775Z,10.90
2019-05-28T06:52:47.800Z,10.50
2019-05-28T06:53:47.813Z,15.40
2019-05-28T06:54:47.834Z,11.70
2019-05-28T06:55:47.856Z,11.40
2019-05-28T06:56:47.871Z,8.40
2019-05-28T06:57:47.895Z,11.50
2019-05-28T06:58:47.909Z,10.60
2019-05-28T06:59:47.932Z,17.40
2019-05-28T07:00:47.950Z,10.00
2019-05-28T07:01:47.974Z,11.20
2019-05-28T07:02:47.988Z,9.80
2019-05-28T07:03:48.013Z,10.50
2019-05-28T07:04:48.028Z,11.20
2019-05-28T07:06:05.537Z,16.60
2019-05-28T07:06:48.069Z,10.30
2019-05-28T07:07:48.090Z,9.90
2019-05-28T07:08:48.109Z,10.20
2019-05-28T07:09:48.136Z,9.00
2019-05-28T07:10:57.655Z,11.30
2019-05-28T07:11:48.667Z,14.60
2019-05-28T07:12:48.190Z,13.30
2019-05-28T07:13:48.211Z,13.70
2019-05-28T07:14:48.257Z,11.60
2019-05-28T07:15:48.243Z,12.70
2019-05-28T07:17:27.738Z,13.30
2019-05-28T07:17:48.281Z,13.40
2019-05-28T07:18:48.305Z,10.50
2019-05-28T07:19:48.321Z,11.50
2019-05-28T07:20:48.349Z,12.20
2019-05-28T07:21:48.361Z,10.90
2019-05-28T07:22:48.381Z,14.40
2019-05-28T07:23:48.398Z,9.40
2019-05-28T07:24:48.422Z,13.00
2019-05-28T07:25:48.437Z,11.60
2019-05-28T07:26:48.459Z,11.90
2019-05-28T07:27:48.475Z,11.10
2019-05-28T07:28:48.503Z,10.80
2019-05-28T07:29:48.517Z,12.30
2019-05-28T07:30:48.542Z,13.90
2019-05-28T07:31:48.555Z,12.10
2019-05-28T07:32:48.600Z,8.70
2019-05-28T07:33:48.592Z,12.80
2019-05-28T07:34:48.617Z,12.70
2019-05-28T07:35:48.639Z,10.30
2019-05-28T07:36:48.655Z,12.10
2019-05-28T07:37:48.669Z,17.80
2019-05-28T07:38:48.695Z,14.30
2019-05-28T07:39:48.710Z,16.40
2019-05-28T07:40:48.731Z,13.30
2019-05-28T07:41:48.750Z,13.00
2019-05-28T07:42:48.769Z,10.00
2019-05-28T07:43:48.789Z,15.70
2019-05-28T07:44:48.813Z,11.50
2019-05-28T07:45:48.829Z,10.30
2019-05-28T07:46:48.846Z,13.90
2019-05-28T07:47:48.869Z,11.30
2019-05-28T07:48:48.894Z,15.50
2019-05-28T07:49:48.906Z,10.50
2019-05-28T07:50:48.929Z,12.90
2019-05-28T07:51:48.954Z,9.00
2019-05-28T07:52:48.964Z,12.00
2019-05-28T07:53:48.986Z,8.70
2019-05-28T07:54:49.005Z,11.00
2019-05-28T07:55:49.022Z,10.70
2019-05-28T07:56:49.291Z,12.30
2019-05-28T07:57:49.065Z,11.70
2019-05-28T07:58:49.082Z,9.40
2019-05-28T07:59:49.103Z,9.60
2019-05-28T08:00:49.132Z,11.80
2019-05-28T08:01:49.145Z,12.10
2019-05-28T08:02:49.169Z,10.00
2019-05-28T08:03:49.384Z,9.70
2019-05-28T08:04:49.358Z,11.10
2019-05-28T08:05:49.374Z,11.50
2019-05-28T08:06:54.734Z,10.60
2019-05-28T08:07:49.520Z,8.60
2019-05-28T08:08:49.441Z,12.90
2019-05-28T08:09:49.556Z,12.50
2019-05-28T08:10:49.331Z,12.70
2019-05-28T08:11:49.348Z,10.20
2019-05-28T08:12:49.377Z,9.80
2019-05-28T08:13:52.423Z,10.50
2019-05-28T08:14:49.410Z,11.30
2019-05-28T08:15:49.440Z,7.90
2019-05-28T08:16:52.863Z,7.80
2019-05-28T08:17:49.470Z,9.30
2019-05-28T08:18:49.492Z,9.90
2019-05-28T08:19:49.553Z,9.00
2019-05-28T08:20:49.542Z,9.80
2019-05-28T08:21:49.555Z,9.20
2019-05-28T08:22:49.586Z,9.80
2019-05-28T08:23:49.594Z,11.30
2019-05-28T08:24:49.619Z,12.20
2019-05-28T08:25:49.637Z,10.50
2019-05-28T08:26:49.659Z,11.00
2019-05-28T08:27:49.714Z,11.80
2019-05-28T08:28:49.702Z,10.90
2019-05-28T08:29:49.719Z,13.00
2019-05-28T08:30:49.743Z,12.10
2019-05-28T08:31:49.760Z,10.10
2019-05-28T08:32:49.781Z,9.90
2019-05-28T08:33:49.803Z,8.90
2019-05-28T08:35:04.286Z,9.70
2019-05-28T08:35:51.722Z,10.30
2019-05-28T08:37:04.260Z,11.30
2019-05-28T08:37:49.884Z,9.80
2019-05-28T08:38:49.908Z,11.70
2019-05-28T08:39:49.928Z,12.80
2019-05-28T08:40:49.949Z,7.40
2019-05-28T08:41:49.965Z,9.90
2019-05-28T08:42:49.989Z,9.60
2019-05-28T08:43:50.008Z,11.20
2019-05-28T08:44:50.078Z,12.40
2019-05-28T08:45:50.052Z,10.50
2019-05-28T08:46:50.067Z,15.10
2019-05-28T08:47:50.088Z,13.60
2019-05-28T08:48:50.107Z,15.80
2019-05-28T08:49:50.130Z,14.30
2019-05-28T08:50:50.152Z,13.60
2019-05-28T08:51:50.169Z,15.60
2019-05-28T08:52:50.208Z,12.00
2019-05-28T08:53:50.214Z,19.10
2019-05-28T08:54:51.214Z,15.30
2019-05-28T08:55:50.255Z,13.00
2019-05-28T08:56:50.266Z,15.70
2019-05-28T08:57:50.288Z,12.60
2019-05-28T08:58:50.308Z,14.20
2019-05-28T08:59:50.325Z,14.20
2019-05-28T09:00:50.345Z,18.60
2019-05-28T09:01:50.377Z,15.40
2019-05-28T09:02:50.387Z,16.60
2019-05-28T09:03:50.410Z,14.80
2019-05-28T09:04:50.429Z,16.30
2019-05-28T09:05:50.443Z,15.20
2019-05-28T09:06:50.484Z,18.30
2019-05-28T09:07:50.484Z,17.90
2019-05-28T09:08:50.501Z,15.00
2019-05-28T09:09:50.521Z,18.70
2019-05-28T09:10:50.541Z,14.20
2019-05-28T09:11:50.559Z,14.50
2019-05-28T09:12:50.580Z,14.00
2019-05-28T09:13:50.948Z,15.20
2019-05-28T09:14:56.112Z,15.40
2019-05-28T09:15:50.642Z,14.20
2019-05-28T09:16:50.665Z,15.40
2019-05-28T09:17:50.685Z,17.30
2019-05-28T09:18:50.696Z,22.30
2019-05-28T09:19:50.719Z,14.10
2019-05-28T09:20:50.937Z,19.30
2019-05-28T09:21:50.753Z,13.00
2019-05-28T09:22:50.772Z,14.70
2019-05-28T09:23:50.789Z,14.40
2019-05-28T09:24:50.809Z,12.40
2019-05-28T09:25:50.830Z,15.10
2019-05-28T09:26:50.848Z,16.30
2019-05-28T09:27:50.876Z,14.20
2019-05-28T09:28:50.893Z,16.20
2019-05-28T09:29:50.909Z,19.90
2019-05-28T09:30:50.953Z,13.10
2019-05-28T09:31:50.943Z,16.80
2019-05-28T09:32:51.117Z,14.20
2019-05-28T09:33:51.885Z,13.30
2019-05-28T09:34:51.001Z,16.20
2019-05-28T09:36:09.071Z,8.60
2019-05-28T09:37:06.709Z,10.10
2019-05-28T09:38:06.731Z,11.40
2019-05-28T09:39:06.747Z,10.70
2019-05-28T09:40:06.763Z,14.20
2019-05-28T09:41:06.792Z,14.10
2019-05-28T09:42:06.803Z,10.40
2019-05-28T09:43:06.825Z,12.60
2019-05-28T09:44:06.842Z,10.90
2019-05-28T09:45:21.389Z,13.20
2019-05-28T09:46:06.885Z,10.80
2019-05-28T09:47:06.900Z,13.20
2019-05-28T09:48:06.921Z,13.50
2019-05-28T09:49:06.935Z,11.80
2019-05-28T09:50:26.931Z,14.10
2019-05-28T09:51:06.975Z,12.40
2019-05-28T09:52:06.991Z,14.10
2019-05-28T09:53:07.010Z,22.10
2019-05-28T09:54:07.031Z,19.60
2019-05-28T09:55:07.053Z,22.40
2019-05-28T09:56:07.068Z,13.50
2019-05-28T09:57:07.093Z,11.40
2019-05-28T09:58:07.105Z,11.50
2019-05-28T09:59:07.126Z,11.50
2019-05-28T10:00:07.143Z,12.70
2019-05-28T10:01:07.169Z,15.90
2019-05-28T10:02:07.189Z,14.10
2019-05-28T10:03:07.209Z,13.60
2019-05-28T10:04:07.227Z,12.90
2019-05-28T10:05:07.247Z,13.60
2019-05-28T10:06:17.045Z,12.00
2019-05-28T10:07:07.323Z,13.10
2019-05-28T10:08:07.351Z,11.10
2019-05-28T10:09:07.333Z,10.20
2019-05-28T10:10:07.343Z,13.20
2019-05-28T10:11:07.360Z,13.90
2019-05-28T10:12:07.379Z,11.30
2019-05-28T10:13:07.398Z,14.30
2019-05-28T10:14:07.414Z,13.20
2019-05-28T10:15:07.456Z,13.00
2019-05-28T10:16:07.467Z,9.30
2019-05-28T10:17:07.477Z,11.10
2019-05-28T10:18:07.496Z,10.60
2019-05-28T10:19:07.512Z,8.90
2019-05-28T10:20:07.532Z,7.70
2019-05-28T10:21:17.570Z,6.70
2019-05-28T10:22:07.971Z,7.70
2019-05-28T10:23:07.635Z,7.20
2019-05-28T10:24:07.611Z,11.60
2019-05-28T10:25:07.630Z,11.60
2019-05-28T10:26:07.653Z,12.70
2019-05-28T10:27:07.675Z,11.20
2019-05-28T10:28:07.704Z,14.00
2019-05-28T10:29:07.709Z,13.00
2019-05-28T10:30:07.730Z,13.00
2019-05-28T10:31:07.745Z,12.10
2019-05-28T10:32:07.767Z,12.20
2019-05-28T10:33:07.788Z,13.30
2019-05-28T10:34:07.808Z,15.60
2019-05-28T10:35:07.881Z,11.70
2019-05-28T10:36:07.846Z,12.90
2019-05-28T10:37:07.875Z,10.10
2019-05-28T10:38:14.481Z,10.00
2019-05-28T10:39:07.905Z,9.90
2019-05-28T10:40:07.929Z,10.40
2019-05-28T10:41:07.967Z,9.80
2019-05-28T10:42:07.971Z,9.60
2019-05-28T10:43:07.984Z,7.20
2019-05-28T10:44:08.009Z,7.60
2019-05-28T10:45:08.026Z,7.60
2019-05-28T10:46:08.448Z,6.70
2019-05-28T10:47:08.064Z,6.50
2019-05-28T10:48:08.091Z,6.20
2019-05-28T10:49:08.452Z,7.60
2019-05-28T10:50:08.166Z,7.70
2019-05-28T10:51:08.143Z,7.10
2019-05-28T10:52:08.172Z,7.60
2019-05-28T10:53:08.187Z,15.90
2019-05-28T10:54:08.203Z,14.80
2019-05-28T10:55:08.228Z,12.60
2019-05-28T10:56:08.244Z,8.20
2019-05-28T10:57:08.271Z,5.30
2019-05-28T10:58:08.291Z,5.80
2019-05-28T10:59:08.305Z,4.10
2019-05-28T11:00:08.329Z,4.60
2019-05-28T11:01:08.359Z,4.00
2019-05-28T11:02:08.370Z,3.30
2019-05-28T11:03:08.387Z,6.40
2019-05-28T11:04:08.414Z,4.70
2019-05-28T11:05:08.534Z,3.20
2019-05-28T11:06:08.454Z,5.50
2019-05-28T11:07:08.472Z,3.90
2019-05-28T11:08:08.493Z,4.60
2019-05-28T11:09:08.978Z,4.90
2019-05-28T11:10:23.030Z,8.50
2019-05-28T11:11:08.560Z,5.60
2019-05-28T11:12:08.578Z,6.80
2019-05-28T11:13:08.600Z,5.80
2019-05-28T11:14:08.621Z,5.20
2019-05-28T11:15:08.641Z,8.20
2019-05-28T11:16:08.663Z,5.70
2019-05-28T11:17:08.681Z,7.00
2019-05-28T11:18:08.703Z,6.20
2019-05-28T11:19:08.726Z,4.70
2019-05-28T11:20:08.744Z,5.80
2019-05-28T11:21:10.004Z,4.40
2019-05-28T11:22:08.796Z,4.70
2019-05-28T11:23:08.808Z,3.90
2019-05-28T11:24:08.829Z,3.40
2019-05-28T11:25:08.853Z,3.00
2019-05-28T11:26:08.882Z,4.20
2019-05-28T11:27:08.896Z,3.60
2019-05-28T11:28:08.919Z,3.60
2019-05-28T11:29:08.939Z,5.30
2019-05-28T11:30:08.967Z,3.60
2019-05-28T11:31:08.982Z,5.10
2019-05-28T11:32:09.006Z,2.80
2019-05-28T11:33:09.022Z,5.20
2019-05-28T11:34:09.043Z,7.70
2019-05-28T11:35:09.075Z,5.70
2019-05-28T11:36:09.091Z,5.90
2019-05-28T11:37:10.199Z,7.30
2019-05-28T11:38:09.129Z,5.00
2019-05-28T11:39:09.159Z,7.40
2019-05-28T11:40:09.172Z,5.90
2019-05-28T11:41:09.545Z,5.70
2019-05-28T11:42:09.225Z,5.70
2019-05-28T11:43:09.246Z,6.60
2019-05-28T11:44:09.260Z,6.80
2019-05-28T11:45:09.380Z,6.40
2019-05-28T11:46:09.305Z,6.20
2019-05-28T11:47:09.329Z,6.60
2019-05-28T11:48:09.437Z,9.20
2019-05-28T11:49:09.367Z,7.10
2019-05-28T11:50:09.388Z,9.20
2019-05-28T11:51:09.420Z,8.30
2019-05-28T11:52:09.444Z,8.30
2019-05-28T11:53:09.457Z,8.80
2019-05-28T11:54:09.476Z,9.00
2019-05-28T11:55:09.495Z,9.20
2019-05-28T11:56:09.525Z,8.70
2019-05-28T11:57:09.543Z,9.20
2019-05-28T11:58:09.569Z,9.50
2019-05-28T11:59:09.579Z,8.70
2019-05-28T12:00:09.608Z,8.20
2019-05-28T12:01:09.627Z,8.80
2019-05-28T12:02:09.680Z,9.20
2019-05-28T12:03:09.668Z,8.20
2019-05-28T12:04:10.061Z,8.10
2019-05-28T12:05:09.709Z,8.70
2019-05-28T12:06:09.736Z,7.90
2019-05-28T12:07:25.184Z,8.70
2019-05-28T12:08:09.772Z,8.40
2019-05-28T12:09:09.794Z,8.30
2019-05-28T12:10:09.815Z,7.80
2019-05-28T12:11:09.845Z,7.80
2019-05-28T12:12:09.855Z,7.90
2019-05-28T12:13:10.911Z,6.80
2019-05-28T12:14:09.897Z,7.10
2019-05-28T12:15:09.928Z,13.20
2019-05-28T12:16:09.941Z,6.30
2019-05-28T12:17:09.967Z,6.10
2019-05-28T12:18:09.984Z,6.60
2019-05-28T12:19:10.014Z,6.80
2019-05-28T12:20:10.064Z,6.60
2019-05-28T12:21:10.056Z,6.40
2019-05-28T12:22:10.072Z,6.60
2019-05-28T12:23:11.856Z,6.00
2019-05-28T12:24:10.111Z,6.60
2019-05-28T12:25:10.128Z,6.60
2019-05-28T12:26:10.149Z,6.60
2019-05-28T12:27:10.170Z,7.10
2019-05-28T12:28:10.193Z,6.30
2019-05-28T12:29:10.218Z,5.50
2019-05-28T12:30:10.234Z,6.30
2019-05-28T12:31:10.252Z,5.50
2019-05-28T12:32:10.867Z,6.50
2019-05-28T12:33:10.291Z,5.50
2019-05-28T12:34:10.313Z,5.80
2019-05-28T12:35:26.336Z,5.60
2019-05-28T12:36:10.426Z,5.00
2019-05-28T12:37:10.382Z,5.50
2019-05-28T12:38:10.406Z,5.70
2019-05-28T12:39:10.418Z,6.90
2019-05-28T12:40:10.441Z,6.70
2019-05-28T12:41:10.457Z,7.40
2019-05-28T12:42:10.494Z,10.70
2019-05-28T12:43:10.501Z,7.20
2019-05-28T12:44:10.521Z,6.60
2019-05-28T12:45:10.662Z,7.10
2019-05-28T12:46:10.557Z,7.90
2019-05-28T12:47:14.411Z,7.00
2019-05-28T12:48:13.039Z,8.80
2019-05-28T12:49:10.623Z,8.20
2019-05-28T12:50:19.229Z,8.00
2019-05-28T12:51:10.656Z,7.80
2019-05-28T12:52:10.700Z,7.80
2019-05-28T12:53:10.700Z,14.80
2019-05-28T12:54:10.748Z,14.40
2019-05-28T12:55:10.740Z,9.00
2019-05-28T12:56:10.761Z,8.50
2019-05-28T12:57:10.783Z,8.70
2019-05-28T12:58:10.799Z,7.30
2019-05-28T12:59:10.819Z,7.50
2019-05-28T13:00:11.044Z,8.70
2019-05-28T13:01:10.861Z,6.60
2019-05-28T13:02:10.887Z,7.30
2019-05-28T13:03:11.048Z,6.90
2019-05-28T13:04:10.931Z,8.80
2019-05-28T13:05:10.942Z,9.40
2019-05-28T13:06:10.958Z,7.80
2019-05-28T13:07:10.977Z,8.00
2019-05-28T13:08:11.009Z,8.70